createdAt,value
2023-03-11T00:00:39.685Z,305.02
2023-03-11T00:03:09.215Z,338.48
2023-03-11T00:05:39.541Z,294.13
2023-03-11T00:08:09.239Z,307.58
2023-03-11T00:10:40.402Z,272.42
2023-03-11T00:13:10.427Z,285.08
2023-03-11T00:15:39.411Z,263.80
2023-03-11T00:18:07.206Z,301.65
2023-03-11T00:20:38.581Z,291.60
2023-03-11T00:23:08.241Z,324.70
2023-03-11T00:25:37.901Z,360.73
2023-03-11T00:28:07.452Z,371.60
2023-03-11T00:30:34.873Z,46.08
2023-03-11T00:33:02.200Z,394.27
2023-03-11T00:35:33.545Z,396.52
2023-03-11T00:38:05.029Z,390.13
2023-03-11T00:40:34.385Z,385.73
2023-03-11T00:43:01.699Z,388.98
2023-03-11T00:45:29.412Z,384.27
2023-03-11T00:47:56.877Z,372.42
2023-03-11T00:50:28.517Z,383.05
2023-03-11T00:52:56.703Z,379.58
2023-03-11T00:55:30.775Z,383.45
2023-03-11T00:58:02.000Z,381.33
2023-03-11T01:00:30.762Z,389.88
2023-03-11T01:03:00.046Z,379.67
2023-03-11T01:05:31.336Z,375.75
2023-03-11T01:07:59.122Z,383.77
2023-03-11T01:10:27.841Z,382.48
2023-03-11T01:12:55.239Z,381.13
2023-03-11T01:15:29.318Z,381.63
2023-03-11T01:17:56.489Z,380.92
2023-03-11T01:20:23.959Z,376.48
2023-03-11T01:22:51.206Z,381.58
2023-03-11T01:25:21.304Z,379.08
2023-03-11T01:27:48.503Z,382.05
2023-03-11T01:30:22.429Z,375.83
2023-03-11T01:32:51.034Z,375.88
2023-03-11T01:35:20.684Z,378.52
2023-03-11T01:37:48.167Z,382.30
2023-03-11T01:40:23.947Z,380.45
2023-03-11T01:42:50.940Z,377.08
2023-03-11T01:45:42.018Z,373.77
2023-03-11T01:48:10.660Z,375.13
2023-03-11T01:50:44.167Z,388.90
2023-03-11T01:53:13.926Z,380.35
2023-03-11T01:55:41.609Z,370.88
2023-03-11T01:58:12.738Z,376.42
2023-03-11T02:00:40.027Z,377.27
2023-03-11T02:03:16.240Z,371.77
2023-03-11T02:05:43.631Z,383.10
2023-03-11T02:08:11.096Z,386.88
2023-03-11T02:10:41.903Z,524.63
2023-03-11T02:13:10.841Z,378.17
2023-03-11T02:15:39.968Z,380.98
2023-03-11T02:18:08.302Z,373.67
2023-03-11T02:21:01.010Z,387.15
2023-03-11T02:23:39.471Z,369.17
2023-03-11T02:26:17.632Z,374.45
2023-03-11T02:28:46.515Z,372.88
2023-03-11T02:31:14.466Z,368.02
2023-03-11T02:33:43.340Z,387.60
2023-03-11T02:36:36.106Z,383.75
2023-03-11T02:39:04.680Z,378.77
2023-03-11T02:41:34.811Z,389.80
2023-03-11T02:44:03.056Z,378.80
2023-03-11T02:46:30.211Z,378.75
2023-03-11T02:48:58.063Z,373.00
2023-03-11T02:51:25.108Z,371.65
2023-03-11T02:53:58.165Z,371.05
2023-03-11T02:56:25.643Z,383.33
2023-03-11T02:58:52.713Z,375.10
2023-03-11T03:01:19.822Z,373.63
2023-03-11T03:03:47.073Z,376.02
2023-03-11T03:06:14.175Z,371.55
2023-03-11T03:08:41.740Z,376.20
2023-03-11T03:11:08.860Z,374.90
2023-03-11T03:13:36.420Z,380.58
2023-03-11T03:16:03.906Z,379.30
2023-03-11T03:18:31.195Z,377.33
2023-03-11T03:20:58.201Z,367.52
2023-03-11T03:23:25.286Z,377.77
2023-03-11T03:25:52.463Z,373.90
2023-03-11T03:28:19.693Z,368.23
2023-03-11T03:30:47.110Z,373.52
2023-03-11T03:33:14.121Z,370.60
2023-03-11T03:35:44.478Z,371.10
2023-03-11T03:38:12.083Z,373.40
2023-03-11T03:40:40.015Z,377.42
2023-03-11T03:43:07.174Z,378.60
2023-03-11T03:45:34.202Z,386.63
2023-03-11T03:48:01.228Z,361.77
2023-03-11T03:50:28.353Z,368.30
2023-03-11T03:52:55.395Z,370.17
2023-03-11T03:55:22.528Z,368.05
2023-03-11T03:57:49.610Z,372.85
2023-03-11T04:00:17.359Z,374.75
2023-03-11T04:02:44.516Z,374.63
2023-03-11T04:05:11.716Z,361.70
2023-03-11T04:07:38.801Z,376.27
2023-03-11T04:10:06.956Z,366.60
2023-03-11T04:12:34.118Z,388.00
2023-03-11T04:15:01.217Z,370.50
2023-03-11T04:17:28.239Z,377.60
2023-03-11T04:19:55.349Z,364.88
2023-03-11T04:22:22.483Z,369.58
2023-03-11T04:24:49.567Z,377.02
2023-03-11T04:27:16.645Z,361.92
2023-03-11T04:29:43.707Z,373.33
2023-03-11T04:32:10.730Z,363.35
2023-03-11T04:34:37.953Z,376.10
2023-03-11T04:37:05.033Z,383.65
2023-03-11T04:39:32.118Z,381.98
2023-03-11T04:41:59.240Z,366.45
2023-03-11T04:44:26.418Z,376.25
2023-03-11T04:46:53.716Z,364.42
2023-03-11T04:49:20.888Z,375.15
2023-03-11T04:51:47.904Z,365.25
2023-03-11T04:54:15.165Z,369.13
2023-03-11T04:56:42.228Z,376.63
2023-03-11T04:59:09.355Z,372.42
2023-03-11T05:01:36.424Z,373.13
2023-03-11T05:04:03.746Z,364.88
2023-03-11T05:06:30.815Z,371.02
2023-03-11T05:08:59.081Z,364.83
2023-03-11T05:11:26.187Z,382.42
2023-03-11T05:13:53.246Z,365.58
2023-03-11T05:16:20.428Z,371.35
2023-03-11T05:18:47.570Z,365.80
2023-03-11T05:21:14.833Z,368.25
2023-03-11T05:23:41.925Z,363.95
2023-03-11T05:26:08.965Z,370.90
2023-03-11T05:28:36.053Z,369.92
2023-03-11T05:31:03.159Z,363.17
2023-03-11T05:33:35.367Z,364.38
2023-03-11T05:36:10.291Z,362.80
2023-03-11T05:38:38.297Z,371.17
2023-03-11T05:41:06.441Z,362.05
2023-03-11T05:43:33.491Z,369.08
2023-03-11T05:46:00.612Z,361.25
2023-03-11T05:48:27.681Z,359.45
2023-03-11T05:50:54.654Z,358.33
2023-03-11T05:53:21.645Z,356.10
2023-03-11T05:56:00.765Z,359.60
2023-03-11T05:58:32.482Z,356.17
2023-03-11T06:01:00.362Z,355.92
2023-03-11T06:03:27.755Z,350.05
2023-03-11T06:05:55.795Z,368.70
2023-03-11T06:08:22.874Z,365.42
2023-03-11T06:10:49.914Z,359.35
2023-03-11T06:13:17.153Z,370.52
2023-03-11T06:15:44.921Z,376.02
2023-03-11T06:18:12.187Z,356.13
2023-03-11T06:20:39.111Z,361.77
2023-03-11T06:23:06.106Z,358.50
2023-03-11T06:25:33.210Z,376.52
2023-03-11T06:28:00.249Z,357.50
2023-03-11T06:30:45.128Z,362.13
2023-03-11T06:33:14.597Z,353.52
2023-03-11T06:35:41.853Z,365.38
2023-03-11T06:38:09.203Z,358.23
2023-03-11T06:40:38.448Z,364.40
2023-03-11T06:43:05.592Z,361.98
2023-03-11T06:45:32.802Z,359.17
2023-03-11T06:47:59.900Z,349.50
2023-03-11T06:50:28.005Z,354.50
2023-03-11T06:52:55.110Z,367.42
2023-03-11T06:55:22.224Z,357.02
2023-03-11T06:57:49.322Z,360.98
2023-03-11T07:00:17.490Z,359.50
2023-03-11T07:02:44.841Z,370.02
2023-03-11T07:05:13.521Z,355.45
2023-03-11T07:07:40.805Z,364.00
2023-03-11T07:10:09.390Z,364.17
2023-03-11T07:12:36.421Z,371.55
2023-03-11T07:15:06.059Z,356.75
2023-03-11T07:17:33.153Z,362.23
2023-03-11T07:20:00.395Z,346.40
2023-03-11T07:22:27.499Z,356.02
2023-03-11T07:24:54.538Z,358.67
2023-03-11T07:27:23.142Z,354.55
2023-03-11T07:29:50.522Z,361.05
2023-03-11T07:32:18.012Z,358.48
2023-03-11T07:34:45.360Z,364.40
2023-03-11T07:37:12.493Z,361.38
2023-03-11T07:39:40.086Z,371.90
2023-03-11T07:42:07.545Z,358.95
2023-03-11T07:44:34.872Z,366.67
2023-03-11T07:47:06.455Z,362.75
2023-03-11T07:49:33.835Z,355.92
2023-03-11T07:52:00.966Z,356.58
2023-03-11T07:54:28.028Z,369.60
2023-03-11T07:56:55.095Z,369.90
2023-03-11T07:59:22.481Z,376.65
2023-03-11T08:01:50.736Z,373.02
2023-03-11T08:04:18.012Z,363.67
2023-03-11T08:06:47.659Z,367.90
2023-03-11T08:09:15.320Z,363.75
2023-03-11T08:11:42.851Z,374.98
2023-03-11T08:14:10.006Z,373.92
2023-03-11T08:16:39.924Z,383.15
2023-03-11T08:19:06.960Z,371.50
2023-03-11T08:21:34.046Z,377.45
2023-03-11T08:24:03.663Z,369.67
2023-03-11T08:26:32.564Z,389.92
2023-03-11T08:28:59.720Z,372.52
2023-03-11T08:31:31.547Z,374.80
2023-03-11T08:34:02.922Z,385.70
2023-03-11T08:36:31.201Z,382.60
2023-03-11T08:38:58.785Z,374.55
2023-03-11T08:41:26.593Z,398.55
2023-03-11T08:43:53.685Z,394.23
2023-03-11T08:46:39.042Z,374.70
2023-03-11T08:49:07.677Z,391.45
2023-03-11T08:51:35.950Z,390.92
2023-03-11T08:54:04.321Z,386.70
2023-03-11T08:56:31.648Z,389.50
2023-03-11T08:58:58.817Z,388.20
2023-03-11T09:01:26.004Z,379.45
2023-03-11T09:03:56.966Z,391.50
2023-03-11T09:06:24.901Z,394.73
2023-03-11T09:08:52.272Z,391.52
2023-03-11T09:11:19.778Z,387.70
2023-03-11T09:13:47.146Z,386.70
2023-03-11T09:16:18.535Z,390.50
2023-03-11T09:18:46.740Z,399.85
2023-03-11T09:21:15.371Z,384.45
2023-03-11T09:23:44.512Z,394.80
2023-03-11T09:26:12.548Z,383.75
2023-03-11T09:28:41.890Z,392.75
2023-03-11T09:31:09.877Z,384.48
2023-03-11T09:33:40.484Z,389.20
2023-03-11T09:36:17.170Z,383.60
2023-03-11T09:38:46.103Z,398.92
2023-03-11T09:41:57.074Z,400.65
2023-03-11T09:44:42.649Z,397.40
2023-03-11T09:48:01.193Z,380.20
2023-03-11T09:50:38.886Z,389.75
2023-03-11T09:53:30.429Z,397.35
2023-03-11T09:56:00.321Z,397.67
2023-03-11T09:58:53.581Z,389.35
2023-03-11T10:01:35.128Z,392.65
2023-03-11T10:04:27.225Z,397.58
2023-03-11T10:06:54.845Z,402.55
2023-03-11T10:09:41.446Z,394.42
2023-03-11T10:12:30.840Z,401.05
2023-03-11T10:15:31.527Z,413.00
2023-03-11T10:18:40.866Z,397.05
2023-03-11T10:21:53.385Z,405.42
2023-03-11T10:24:55.529Z,396.88
2023-03-11T10:27:37.609Z,392.33
2023-03-11T10:30:24.859Z,398.02
2023-03-11T10:33:20.562Z,397.48
2023-03-11T10:35:54.288Z,411.10
2023-03-11T10:38:27.065Z,406.50
2023-03-11T10:41:03.544Z,416.80
2023-03-11T10:43:45.666Z,408.67
2023-03-11T10:46:27.113Z,419.15
2023-03-11T10:48:54.487Z,414.15
2023-03-11T10:51:34.687Z,414.02
2023-03-11T10:54:04.034Z,418.77
2023-03-11T10:56:39.496Z,413.50
2023-03-11T10:59:50.628Z,408.35
2023-03-11T11:02:39.167Z,414.30
2023-03-11T11:05:18.227Z,415.02
2023-03-11T11:07:47.587Z,419.33
2023-03-11T11:10:16.854Z,413.45
2023-03-11T11:13:14.097Z,415.38
2023-03-11T11:15:52.194Z,427.38
2023-03-11T11:18:24.998Z,418.35
2023-03-11T11:21:05.814Z,426.83
2023-03-11T11:23:41.043Z,424.73
2023-03-11T11:26:23.020Z,419.48
2023-03-11T11:29:09.202Z,432.05
2023-03-11T11:31:45.369Z,427.20
2023-03-11T11:34:35.327Z,431.95
2023-03-11T11:37:07.683Z,431.35
2023-03-11T11:39:57.400Z,431.90
2023-03-11T11:42:28.916Z,426.60
2023-03-11T11:45:29.648Z,445.58
2023-03-11T11:48:09.124Z,434.33
2023-03-11T11:50:57.532Z,434.25
2023-03-11T11:53:57.269Z,426.50
2023-03-11T11:56:31.868Z,427.58
2023-03-11T11:59:01.363Z,435.55
2023-03-11T12:02:13.663Z,422.83
2023-03-11T12:04:54.037Z,429.60
2023-03-11T12:07:39.890Z,422.17
2023-03-11T12:10:37.739Z,426.17
2023-03-11T12:13:14.971Z,712.80
2023-03-11T12:15:52.985Z,431.38
2023-03-11T12:18:28.784Z,434.42
2023-03-11T12:20:57.107Z,435.92
2023-03-11T12:23:55.109Z,435.15
2023-03-11T12:26:29.126Z,436.42
2023-03-11T12:29:08.969Z,442.17
2023-03-11T12:31:42.049Z,443.33
2023-03-11T12:34:20.157Z,445.13
2023-03-11T12:36:58.958Z,456.15
2023-03-11T12:39:35.814Z,476.80
2023-03-11T12:42:19.793Z,464.63
2023-03-11T12:44:53.033Z,483.13
2023-03-11T12:47:26.325Z,482.85
2023-03-11T12:50:37.722Z,516.75
2023-03-11T12:53:06.941Z,509.02
2023-03-11T12:55:36.475Z,524.28
2023-03-11T12:58:56.194Z,526.22
2023-03-11T13:02:02.850Z,526.80
2023-03-11T13:04:56.431Z,544.80
2023-03-11T13:07:26.432Z,545.08
2023-03-11T13:10:18.915Z,558.53
2023-03-11T13:12:49.566Z,563.35
2023-03-11T13:15:20.453Z,569.10
2023-03-11T13:18:18.865Z,591.33
2023-03-11T13:20:50.237Z,590.92
2023-03-11T13:23:32.105Z,603.70
2023-03-11T13:26:17.071Z,612.88
2023-03-11T13:29:19.209Z,620.25
2023-03-11T13:32:23.174Z,635.30
2023-03-11T13:35:22.298Z,648.13
2023-03-11T13:38:45.917Z,666.17
2023-03-11T13:41:32.087Z,657.83
2023-03-11T13:44:26.970Z,667.03
2023-03-11T13:47:04.580Z,666.08
2023-03-11T13:49:42.996Z,621.88
2023-03-11T13:52:16.958Z,605.65
2023-03-11T13:54:58.375Z,593.08
2023-03-11T13:57:31.962Z,595.65
2023-03-11T14:00:29.868Z,574.35
2023-03-11T14:03:02.129Z,562.55
2023-03-11T14:05:36.188Z,567.83
2023-03-11T14:08:19.182Z,558.05
2023-03-11T14:11:17.491Z,532.17
2023-03-11T14:13:50.198Z,522.28
2023-03-11T14:16:44.137Z,527.80
2023-03-11T14:19:18.994Z,511.00
2023-03-11T14:21:49.219Z,505.13
2023-03-11T14:24:23.403Z,496.50
2023-03-11T14:26:55.906Z,486.73
2023-03-11T14:29:43.430Z,460.70
2023-03-11T14:32:37.598Z,450.52
2023-03-11T14:35:20.595Z,450.65
2023-03-11T14:37:47.753Z,440.00
2023-03-11T14:40:30.018Z,570.28
2023-03-11T14:43:02.488Z,439.50
2023-03-11T14:45:33.631Z,434.95
2023-03-11T14:48:18.185Z,440.88
2023-03-11T14:50:49.566Z,431.48
2023-03-11T14:53:41.530Z,429.50
2023-03-11T14:56:19.181Z,434.65
2023-03-11T14:59:23.469Z,425.48
2023-03-11T15:01:51.557Z,422.95
2023-03-11T15:04:33.905Z,426.70
2023-03-11T15:07:02.217Z,423.50
2023-03-11T15:09:30.457Z,417.05
2023-03-11T15:12:00.854Z,414.00
2023-03-11T15:14:31.979Z,428.10
2023-03-11T15:17:34.722Z,415.75
2023-03-11T15:20:07.552Z,416.42
2023-03-11T15:22:41.149Z,411.55
2023-03-11T15:25:19.520Z,422.55
2023-03-11T15:27:47.179Z,417.67
2023-03-11T15:30:28.125Z,411.58
2023-03-11T15:32:56.270Z,419.85
2023-03-11T15:35:31.067Z,410.52
2023-03-11T15:38:21.657Z,420.10
2023-03-11T15:41:01.096Z,414.02
2023-03-11T15:43:46.201Z,412.40
2023-03-11T15:46:13.268Z,416.38
2023-03-11T15:48:40.288Z,411.33
2023-03-11T15:51:17.357Z,417.83
2023-03-11T15:53:44.325Z,420.13
2023-03-11T15:56:21.394Z,424.15
2023-03-11T15:58:48.554Z,415.83
2023-03-11T16:01:15.527Z,414.33
2023-03-11T16:03:42.659Z,411.17
2023-03-11T16:06:09.696Z,412.75
2023-03-11T16:08:36.779Z,416.88
2023-03-11T16:11:03.834Z,418.02
2023-03-11T16:13:30.870Z,408.20
2023-03-11T16:15:57.994Z,414.88
2023-03-11T16:18:25.103Z,411.52
2023-03-11T16:20:54.397Z,411.67
2023-03-11T16:23:44.810Z,414.63
2023-03-11T16:26:17.558Z,418.58
2023-03-11T16:28:44.540Z,415.08
2023-03-11T16:31:11.666Z,409.10
2023-03-11T16:33:38.786Z,416.50
2023-03-11T16:36:06.536Z,417.00
2023-03-11T16:38:47.594Z,414.98
2023-03-11T16:41:15.915Z,409.45
2023-03-11T16:43:43.580Z,412.02
2023-03-11T16:46:10.742Z,409.30
2023-03-11T16:48:37.749Z,414.52
2023-03-11T16:51:05.074Z,416.00
2023-03-11T16:53:32.113Z,407.20
2023-03-11T16:55:59.869Z,403.58
2023-03-11T16:58:27.067Z,414.10
2023-03-11T17:00:54.122Z,407.95
2023-03-11T17:03:21.746Z,401.15
2023-03-11T17:05:49.247Z,400.67
2023-03-11T17:08:18.292Z,403.20
2023-03-11T17:10:46.679Z,405.02
2023-03-11T17:13:16.511Z,398.77
2023-03-11T17:15:45.867Z,399.05
2023-03-11T17:18:13.744Z,402.50
2023-03-11T17:20:43.682Z,395.48
2023-03-11T17:23:10.766Z,396.40
2023-03-11T17:25:41.703Z,400.88
2023-03-11T17:28:09.432Z,395.98
2023-03-11T17:30:37.767Z,390.65
2023-03-11T17:33:05.259Z,401.95
2023-03-11T17:35:32.326Z,407.15
2023-03-11T17:37:59.338Z,395.42
2023-03-11T17:40:27.165Z,395.80
2023-03-11T17:42:54.304Z,390.48
2023-03-11T17:45:21.231Z,394.83
2023-03-11T17:47:48.420Z,389.75
2023-03-11T17:50:15.682Z,390.13
2023-03-11T17:52:43.532Z,402.48
2023-03-11T17:55:17.395Z,399.13
2023-03-11T17:57:45.807Z,397.92
2023-03-11T18:00:15.197Z,395.27
2023-03-11T18:02:42.671Z,400.92
2023-03-11T18:05:10.342Z,395.25
2023-03-11T18:07:40.972Z,391.75
2023-03-11T18:10:10.103Z,396.13
2023-03-11T18:12:38.249Z,393.85
2023-03-11T18:15:08.379Z,393.83
2023-03-11T18:17:35.787Z,402.23
2023-03-11T18:20:03.602Z,383.63
2023-03-11T18:22:30.681Z,394.17
2023-03-11T18:24:57.988Z,385.15
2023-03-11T18:27:25.220Z,382.48
2023-03-11T18:29:52.175Z,390.67
2023-03-11T18:32:20.862Z,384.15
2023-03-11T18:34:51.265Z,400.58
2023-03-11T18:37:18.829Z,397.33
2023-03-11T18:39:46.178Z,386.83
2023-03-11T18:42:14.432Z,382.13
2023-03-11T18:44:42.515Z,375.00
2023-03-11T18:47:09.631Z,405.27
2023-03-11T18:49:37.964Z,383.25
2023-03-11T18:52:05.589Z,382.95
2023-03-11T18:54:32.933Z,379.13
2023-03-11T18:56:59.975Z,373.58
2023-03-11T18:59:27.912Z,395.13
2023-03-11T19:01:55.384Z,387.98
2023-03-11T19:04:22.884Z,390.67
2023-03-11T19:06:50.329Z,380.08
2023-03-11T19:09:21.255Z,382.52
2023-03-11T19:11:48.322Z,367.23
2023-03-11T19:14:15.833Z,393.52
2023-03-11T19:16:43.353Z,379.07
2023-03-11T19:19:11.903Z,376.70
2023-03-11T19:21:39.443Z,391.35
2023-03-11T19:24:06.856Z,372.95
2023-03-11T19:26:44.809Z,384.55
2023-03-11T19:29:14.366Z,369.80
2023-03-11T19:31:43.760Z,369.33
2023-03-11T19:34:11.066Z,362.73
2023-03-11T19:36:39.190Z,374.30
2023-03-11T19:39:06.338Z,370.57
2023-03-11T19:41:34.433Z,365.17
2023-03-11T19:44:04.366Z,369.33
2023-03-11T19:46:34.814Z,367.90
2023-03-11T19:49:03.085Z,360.07
2023-03-11T19:51:42.465Z,372.70
2023-03-11T19:54:16.932Z,362.57
2023-03-11T19:56:44.140Z,372.37
2023-03-11T19:59:11.602Z,368.70
2023-03-11T20:01:38.676Z,359.27
2023-03-11T20:04:06.366Z,362.07
2023-03-11T20:06:33.787Z,373.20
2023-03-11T20:09:01.032Z,378.53
2023-03-11T20:11:28.203Z,370.77
2023-03-11T20:13:56.539Z,387.73
2023-03-11T20:16:23.865Z,380.20
2023-03-11T20:18:51.630Z,370.33
2023-03-11T20:21:20.444Z,378.93
2023-03-11T20:23:49.138Z,375.73
2023-03-11T20:26:19.401Z,375.17
2023-03-11T20:28:47.156Z,410.93
2023-03-11T20:31:23.914Z,383.53
2023-03-11T20:33:52.080Z,370.23
2023-03-11T20:36:25.836Z,368.00
2023-03-11T20:38:55.111Z,370.27
2023-03-11T20:41:25.253Z,374.77
2023-03-11T20:43:57.076Z,370.17
2023-03-11T20:46:24.520Z,374.57
2023-03-11T20:48:51.969Z,359.47
2023-03-11T20:51:20.928Z,363.20
2023-03-11T20:53:49.191Z,358.70
2023-03-11T20:56:21.076Z,364.97
2023-03-11T20:58:51.149Z,358.23
2023-03-11T21:01:23.189Z,364.10
2023-03-11T21:03:53.598Z,370.27
2023-03-11T21:06:25.920Z,369.33
2023-03-11T21:08:58.414Z,362.53
2023-03-11T21:11:27.105Z,374.47
2023-03-11T21:13:55.567Z,370.73
2023-03-11T21:16:23.517Z,376.23
2023-03-11T21:18:50.759Z,367.03
2023-03-11T21:21:19.526Z,366.33
2023-03-11T21:23:47.966Z,363.77
2023-03-11T21:26:17.303Z,358.50
2023-03-11T21:28:47.172Z,362.30
2023-03-11T21:31:23.201Z,362.07
2023-03-11T21:33:54.858Z,357.57
2023-03-11T21:36:22.893Z,360.70
2023-03-11T21:38:51.195Z,371.90
2023-03-11T21:41:26.285Z,369.30
2023-03-11T21:43:56.165Z,368.17
2023-03-11T21:46:31.181Z,359.97
2023-03-11T21:49:00.698Z,357.10
2023-03-11T21:51:28.589Z,375.73
2023-03-11T21:53:56.915Z,353.07
2023-03-11T21:56:24.175Z,365.03
2023-03-11T21:58:54.955Z,353.17
2023-03-11T22:01:22.424Z,375.87
2023-03-11T22:03:49.599Z,362.63
2023-03-11T22:06:16.724Z,365.57
2023-03-11T22:08:46.118Z,362.07
2023-03-11T22:11:19.518Z,380.10
2023-03-11T22:13:49.229Z,355.70
2023-03-11T22:16:17.421Z,355.50
2023-03-11T22:18:47.773Z,353.50
2023-03-11T22:21:16.381Z,374.40
2023-03-11T22:23:46.191Z,369.17
2023-03-11T22:26:14.751Z,363.77
2023-03-11T22:28:41.747Z,376.00
2023-03-11T22:31:15.053Z,371.37
2023-03-11T22:33:42.667Z,380.67
2023-03-11T22:36:10.109Z,362.47
2023-03-11T22:38:39.409Z,363.20
2023-03-11T22:41:08.552Z,360.73
2023-03-11T22:43:37.323Z,364.90
2023-03-11T22:46:06.082Z,365.43
2023-03-11T22:48:35.545Z,364.10
2023-03-11T22:51:03.480Z,383.10
2023-03-11T22:53:30.651Z,378.43
2023-03-11T22:55:57.853Z,358.33
2023-03-11T22:58:25.003Z,365.60
2023-03-11T23:00:52.022Z,372.30
2023-03-11T23:03:19.116Z,369.30
2023-03-11T23:05:46.943Z,358.17
2023-03-11T23:08:16.649Z,356.53
2023-03-11T23:10:46.274Z,360.17
2023-03-11T23:13:14.090Z,364.10
2023-03-11T23:15:43.955Z,358.10
2023-03-11T23:18:12.716Z,346.53
2023-03-11T23:20:41.717Z,359.93
2023-03-11T23:23:10.743Z,355.47
2023-03-11T23:25:39.690Z,350.57
2023-03-11T23:28:07.656Z,356.53
2023-03-11T23:30:34.822Z,374.90
2023-03-11T23:33:03.174Z,359.40
2023-03-11T23:35:31.735Z,346.53
2023-03-11T23:37:59.446Z,362.47
2023-03-11T23:40:26.837Z,351.57
2023-03-11T23:42:54.094Z,347.23
2023-03-11T23:45:21.131Z,352.13
2023-03-11T23:47:48.265Z,346.73
2023-03-11T23:50:15.907Z,343.27
2023-03-11T23:52:43.436Z,348.07
2023-03-11T23:55:11.358Z,357.70
2023-03-11T23:57:39.446Z,354.10
